Bardwell, Kentucky
Current Conditions -  °F | °C
As of 2:35 AM on Sunday 23 Nov 2014 (Local Time) from KCIR Reporting Station
Overcast Overcast  
Wind Chill: 57°   Ceiling: 4800
Heat Index: 57°   Visibility: 10mi
Dew Point: 47°   Wind: 10mph
Humidity: 68%   Direction: 150°SSE
Pressure: 29.89"   Gusts: 16mph
Location:  36.87°N, 89.01°W
Report Text: KCIR 230835Z AUTO 15009G14KT 10SM OVC048 14/08 A2989 RMK AO2 T01400081
Loading
Personal Weather Stations






























Interactive Weather Map New forecast layout! Learn more

10-Day Weather Forecast

Advertisements
Track Severe Weather on mobile